Impacts TAF Board INFO
FOR SITUATIONAL AWARENESS. NOT TO BE USED FOR FLIGHT PLANNING PURPOSES.
IDs:

KIAH - Houston/Bush Intl, TX, US

Issued at 1459 UTC 23 May 2018
Updated at 1504 UTC 23 May 2018
Potential Impact None Slight Moderate High
Time1453Z 23/16Z 23/17Z 23/18Z 23/19Z 23/20Z 23/21Z 23/22Z 23/23Z 24/00Z 24/01Z 24/02Z 24/03Z 24/04Z>>
Type OBS PRVL
  [TEMP]  
PRVL
  [TEMP]  
PRVL PRVL PRVL PRVL PRVL PRVL PRVL PRVL PRVL PRVL PRVL
VIS 10 >6
  [5]  
>6
  [5]  
>6 >6 >6 >6 >6 >6 >6 >6 >6 >6 >6
CIG 17 --
  [17]  
--
  [17]  
40 40 40 40 250 250 250 -- -- -- --
Cover BKN SCT
  [BKN]  
SCT
  [BKN]  
BKN BKN BKN BKN BKN BKN BKN SCT SCT SCT SCT
FltCat MVFR VFR
  [MVFR]  
VFR
  [MVFR]  
VFR VFR VFR VFR VFR VFR VFR VFR VFR VFR VFR
WX -- VCTS
  [TSRA BR]  
VCTS
  [TSRA BR]  
VCTS VCTS VCTS VCTS -- -- -- -- -- -- --
WDir 90 120
[120]
120
[120]
130 130 130 130 130 130 130 VRB VRB VRB VRB
WSpd 7 7
  [7]  
7
  [7]  
9 9 9 9 7 7 7 3 3 3 3
WGst -- --
  [--]  
--
  [--]  
-- -- -- -- -- -- -- -- -- -- --

Raw TAF
KIAH 231459Z 2315/2418 12007KT P6SM VCTS SCT035CB
  TEMPO 2315/2318 5SM TSRA BR BKN017CB
  FM231800 13009KT P6SM VCTS BKN040CB
  FM232200 13007KT P6SM BKN250
  FM240100 VRB03KT P6SM SCT250


Raw METAR
KIAH 231453Z 09007KT 10SM BKN017CB BKN250 28/24 A3005 RMK AO2 LTG DSNT SE AND S SLP176 CB DSNT SE-SW MOV NW SHRA DSNT SE-S T02780239 51018
KIAH 231353Z 06005KT 10SM FEW020 FEW250 27/24 A3004 RMK AO2 SLP171 CB DSNT SE-S MOV NW T02720244
KIAH 231253Z 00000KT 10SM FEW020 SCT250 24/24 A3002 RMK AO2 SLP165 T02440239

METAR Board
Radar Display
Forecast Discussion

FOR SITUATIONAL AWARENESS. NOT TO BE USED FOR FLIGHT PLANNING PURPOSES.